sensor_id;sensor_type;location;lat;lon;timestamp;P1;durP1;ratioP1;P2;durP2;ratioP2
2934;SDS011;2462;51.456;7.248;2023-02-01T00:01:46;7.83;;;4.20;;
2934;SDS011;2462;51.456;7.248;2023-02-01T00:04:12;4.60;;;3.67;;
2934;SDS011;2462;51.456;7.248;2023-02-01T00:06:38;8.40;;;4.50;;
2934;SDS011;2462;51.456;7.248;2023-02-01T00:09:04;6.57;;;4.40;;
2934;SDS011;2462;51.456;7.248;2023-02-01T00:11:30;4.37;;;3.97;;
2934;SDS011;2462;51.456;7.248;2023-02-01T00:13:57;6.30;;;4.53;;
2934;SDS011;2462;51.456;7.248;2023-02-01T00:16:24;5.03;;;4.30;;
2934;SDS011;2462;51.456;7.248;2023-02-01T00:18:51;5.63;;;4.10;;
2934;SDS011;2462;51.456;7.248;2023-02-01T00:21:18;7.43;;;5.27;;
2934;SDS011;2462;51.456;7.248;2023-02-01T00:23:44;5.50;;;4.10;;
2934;SDS011;2462;51.456;7.248;2023-02-01T00:26:13;6.10;;;5.00;;
2934;SDS011;2462;51.456;7.248;2023-02-01T00:28:40;5.23;;;4.53;;
2934;SDS011;2462;51.456;7.248;2023-02-01T00:31:06;7.03;;;4.03;;
2934;SDS011;2462;51.456;7.248;2023-02-01T00:33:32;9.00;;;4.37;;
2934;SDS011;2462;51.456;7.248;2023-02-01T00:35:58;5.90;;;4.17;;
2934;SDS011;2462;51.456;7.248;2023-02-01T00:38:25;7.70;;;4.23;;
2934;SDS011;2462;51.456;7.248;2023-02-01T00:40:51;5.93;;;4.37;;
2934;SDS011;2462;51.456;7.248;2023-02-01T00:43:17;5.20;;;4.70;;
2934;SDS011;2462;51.456;7.248;2023-02-01T00:45:45;4.33;;;3.90;;
2934;SDS011;2462;51.456;7.248;2023-02-01T00:48:11;6.47;;;4.90;;
2934;SDS011;2462;51.456;7.248;2023-02-01T00:50:41;6.37;;;5.30;;
2934;SDS011;2462;51.456;7.248;2023-02-01T00:53:07;4.87;;;4.40;;
2934;SDS011;2462;51.456;7.248;2023-02-01T00:55:33;6.27;;;4.30;;
2934;SDS011;2462;51.456;7.248;2023-02-01T00:57:59;5.50;;;4.07;;
2934;SDS011;2462;51.456;7.248;2023-02-01T01:00:25;6.67;;;4.13;;
2934;SDS011;2462;51.456;7.248;2023-02-01T01:02:51;7.53;;;4.70;;
2934;SDS011;2462;51.456;7.248;2023-02-01T01:05:18;4.43;;;4.03;;
2934;SDS011;2462;51.456;7.248;2023-02-01T01:07:44;5.00;;;4.50;;
2934;SDS011;2462;51.456;7.248;2023-02-01T01:10:10;5.73;;;4.10;;
2934;SDS011;2462;51.456;7.248;2023-02-01T01:12:36;7.40;;;4.03;;
2934;SDS011;2462;51.456;7.248;2023-02-01T01:15:02;4.67;;;3.93;;
2934;SDS011;2462;51.456;7.248;2023-02-01T01:17:30;5.63;;;4.17;;
2934;SDS011;2462;51.456;7.248;2023-02-01T01:19:56;4.73;;;4.23;;
2934;SDS011;2462;51.456;7.248;2023-02-01T01:22:22;5.27;;;4.13;;
2934;SDS011;2462;51.456;7.248;2023-02-01T01:24:48;5.00;;;4.40;;
2934;SDS011;2462;51.456;7.248;2023-02-01T01:27:14;4.90;;;4.07;;
2934;SDS011;2462;51.456;7.248;2023-02-01T01:29:40;5.50;;;4.43;;
2934;SDS011;2462;51.456;7.248;2023-02-01T01:32:06;4.87;;;3.70;;
2934;SDS011;2462;51.456;7.248;2023-02-01T01:34:32;6.77;;;4.10;;
2934;SDS011;2462;51.456;7.248;2023-02-01T01:36:58;5.97;;;4.30;;
2934;SDS011;2462;51.456;7.248;2023-02-01T01:39:24;4.33;;;3.90;;
2934;SDS011;2462;51.456;7.248;2023-02-01T01:41:50;5.00;;;4.30;;
2934;SDS011;2462;51.456;7.248;2023-02-01T01:47:01;7.43;;;4.13;;
2934;SDS011;2462;51.456;7.248;2023-02-01T01:49:27;5.93;;;4.30;;
2934;SDS011;2462;51.456;7.248;2023-02-01T01:51:58;4.43;;;3.90;;
2934;SDS011;2462;51.456;7.248;2023-02-01T01:54:29;5.77;;;4.27;;
2934;SDS011;2462;51.456;7.248;2023-02-01T01:56:58;5.27;;;4.30;;
2934;SDS011;2462;51.456;7.248;2023-02-01T01:59:25;8.43;;;4.40;;
2934;SDS011;2462;51.456;7.248;2023-02-01T02:01:52;4.30;;;3.90;;
2934;SDS011;2462;51.456;7.248;2023-02-01T02:04:18;5.33;;;4.27;;
2934;SDS011;2462;51.456;7.248;2023-02-01T02:07:04;4.43;;;3.60;;
2934;SDS011;2462;51.456;7.248;2023-02-01T02:09:31;5.53;;;4.43;;
2934;SDS011;2462;51.456;7.248;2023-02-01T02:11:57;5.87;;;4.00;;
2934;SDS011;2462;51.456;7.248;2023-02-01T02:14:24;5.20;;;3.70;;
2934;SDS011;2462;51.456;7.248;2023-02-01T02:27:51;7.73;;;4.27;;
2934;SDS011;2462;51.456;7.248;2023-02-01T02:33:16;5.53;;;3.70;;
2934;SDS011;2462;51.456;7.248;2023-02-01T02:35:49;5.13;;;3.43;;
2934;SDS011;2462;51.456;7.248;2023-02-01T02:41:04;5.93;;;4.10;;
2934;SDS011;2462;51.456;7.248;2023-02-01T02:43:32;5.90;;;4.30;;
2934;SDS011;2462;51.456;7.248;2023-02-01T02:46:24;4.60;;;3.73;;
2934;SDS011;2462;51.456;7.248;2023-02-01T02:49:15;4.40;;;3.33;;
2934;SDS011;2462;51.456;7.248;2023-02-01T02:51:46;6.77;;;4.07;;
2934;SDS011;2462;51.456;7.248;2023-02-01T02:54:33;7.70;;;3.57;;
2934;SDS011;2462;51.456;7.248;2023-02-01T02:57:24;5.53;;;3.30;;
2934;SDS011;2462;51.456;7.248;2023-02-01T03:00:12;6.20;;;3.50;;
2934;SDS011;2462;51.456;7.248;2023-02-01T03:02:57;5.53;;;4.30;;
2934;SDS011;2462;51.456;7.248;2023-02-01T03:05:43;6.40;;;3.90;;
2934;SDS011;2462;51.456;7.248;2023-02-01T03:13:02;3.67;;;3.33;;
2934;SDS011;2462;51.456;7.248;2023-02-01T03:15:38;4.20;;;3.37;;
2934;SDS011;2462;51.456;7.248;2023-02-01T03:18:09;6.93;;;3.20;;
2934;SDS011;2462;51.456;7.248;2023-02-01T03:20:37;3.63;;;3.00;;
2934;SDS011;2462;51.456;7.248;2023-02-01T03:23:06;4.70;;;3.47;;
2934;SDS011;2462;51.456;7.248;2023-02-01T03:25:32;5.93;;;3.87;;
2934;SDS011;2462;51.456;7.248;2023-02-01T03:28:03;5.13;;;3.23;;
2934;SDS011;2462;51.456;7.248;2023-02-01T03:30:31;6.30;;;3.30;;
2934;SDS011;2462;51.456;7.248;2023-02-01T03:33:00;5.27;;;3.20;;
2934;SDS011;2462;51.456;7.248;2023-02-01T03:35:33;4.50;;;3.27;;
2934;SDS011;2462;51.456;7.248;2023-02-01T03:40:48;5.17;;;3.60;;
2934;SDS011;2462;51.456;7.248;2023-02-01T03:43:17;5.30;;;3.47;;
2934;SDS011;2462;51.456;7.248;2023-02-01T03:45:46;5.70;;;3.63;;
2934;SDS011;2462;51.456;7.248;2023-02-01T03:48:14;4.67;;;3.23;;
2934;SDS011;2462;51.456;7.248;2023-02-01T03:50:43;3.87;;;3.23;;
2934;SDS011;2462;51.456;7.248;2023-02-01T03:53:12;6.60;;;3.40;;
2934;SDS011;2462;51.456;7.248;2023-02-01T03:55:39;7.13;;;3.47;;
2934;SDS011;2462;51.456;7.248;2023-02-01T03:58:11;6.57;;;3.50;;
2934;SDS011;2462;51.456;7.248;2023-02-01T04:00:38;3.77;;;3.43;;
2934;SDS011;2462;51.456;7.248;2023-02-01T04:03:05;4.63;;;3.33;;
2934;SDS011;2462;51.456;7.248;2023-02-01T04:05:31;9.73;;;3.10;;
2934;SDS011;2462;51.456;7.248;2023-02-01T04:07:57;4.30;;;3.30;;
2934;SDS011;2462;51.456;7.248;2023-02-01T04:10:24;5.80;;;3.20;;
2934;SDS011;2462;51.456;7.248;2023-02-01T04:12:50;6.00;;;3.00;;
2934;SDS011;2462;51.456;7.248;2023-02-01T04:15:16;5.37;;;3.20;;
2934;SDS011;2462;51.456;7.248;2023-02-01T04:17:42;2.93;;;2.60;;
2934;SDS011;2462;51.456;7.248;2023-02-01T04:20:08;5.10;;;2.83;;
2934;SDS011;2462;51.456;7.248;2023-02-01T04:22:35;6.93;;;4.20;;
2934;SDS011;2462;51.456;7.248;2023-02-01T04:25:01;5.90;;;4.10;;
2934;SDS011;2462;51.456;7.248;2023-02-01T04:27:27;4.90;;;2.93;;
2934;SDS011;2462;51.456;7.248;2023-02-01T04:29:53;4.00;;;2.97;;
2934;SDS011;2462;51.456;7.248;2023-02-01T04:32:19;5.27;;;3.70;;
2934;SDS011;2462;51.456;7.248;2023-02-01T04:34:45;5.37;;;3.00;;
2934;SDS011;2462;51.456;7.248;2023-02-01T04:37:11;8.33;;;3.17;;
2934;SDS011;2462;51.456;7.248;2023-02-01T04:39:37;4.27;;;3.37;;
2934;SDS011;2462;51.456;7.248;2023-02-01T04:42:03;7.60;;;3.20;;
2934;SDS011;2462;51.456;7.248;2023-02-01T04:44:29;7.10;;;4.20;;
2934;SDS011;2462;51.456;7.248;2023-02-01T04:46:55;7.47;;;3.43;;
2934;SDS011;2462;51.456;7.248;2023-02-01T04:49:21;4.03;;;2.30;;
2934;SDS011;2462;51.456;7.248;2023-02-01T04:51:48;3.73;;;2.53;;
2934;SDS011;2462;51.456;7.248;2023-02-01T04:54:13;4.53;;;3.17;;
2934;SDS011;2462;51.456;7.248;2023-02-01T04:56:40;6.47;;;2.87;;
2934;SDS011;2462;51.456;7.248;2023-02-01T04:59:06;6.87;;;3.20;;
2934;SDS011;2462;51.456;7.248;2023-02-01T05:01:32;6.83;;;3.40;;
2934;SDS011;2462;51.456;7.248;2023-02-01T05:03:58;5.70;;;2.90;;
2934;SDS011;2462;51.456;7.248;2023-02-01T05:06:24;5.13;;;2.70;;
2934;SDS011;2462;51.456;7.248;2023-02-01T05:08:50;6.03;;;3.00;;
2934;SDS011;2462;51.456;7.248;2023-02-01T05:11:16;5.07;;;3.43;;
2934;SDS011;2462;51.456;7.248;2023-02-01T05:14:01;5.23;;;3.30;;
2934;SDS011;2462;51.456;7.248;2023-02-01T05:16:27;3.90;;;2.73;;
2934;SDS011;2462;51.456;7.248;2023-02-01T05:18:53;6.63;;;2.80;;
2934;SDS011;2462;51.456;7.248;2023-02-01T05:21:20;4.27;;;2.83;;
2934;SDS011;2462;51.456;7.248;2023-02-01T05:23:46;5.70;;;3.30;;
2934;SDS011;2462;51.456;7.248;2023-02-01T05:26:31;4.03;;;3.07;;
2934;SDS011;2462;51.456;7.248;2023-02-01T05:28:57;4.57;;;2.97;;
2934;SDS011;2462;51.456;7.248;2023-02-01T05:31:23;8.97;;;2.83;;
2934;SDS011;2462;51.456;7.248;2023-02-01T05:33:49;3.53;;;3.07;;
2934;SDS011;2462;51.456;7.248;2023-02-01T05:36:15;3.30;;;2.13;;
2934;SDS011;2462;51.456;7.248;2023-02-01T05:38:41;4.80;;;2.87;;
2934;SDS011;2462;51.456;7.248;2023-02-01T05:41:07;5.83;;;3.20;;
2934;SDS011;2462;51.456;7.248;2023-02-01T05:43:33;5.17;;;3.20;;
2934;SDS011;2462;51.456;7.248;2023-02-01T05:45:59;4.00;;;2.63;;
2934;SDS011;2462;51.456;7.248;2023-02-01T05:48:25;4.20;;;2.97;;
2934;SDS011;2462;51.456;7.248;2023-02-01T05:50:51;4.50;;;2.77;;
2934;SDS011;2462;51.456;7.248;2023-02-01T05:53:19;4.30;;;2.80;;
2934;SDS011;2462;51.456;7.248;2023-02-01T05:55:45;5.37;;;2.57;;
2934;SDS011;2462;51.456;7.248;2023-02-01T05:58:11;6.83;;;2.90;;
2934;SDS011;2462;51.456;7.248;2023-02-01T06:00:38;8.10;;;3.50;;
2934;SDS011;2462;51.456;7.248;2023-02-01T06:03:04;7.33;;;3.57;;
2934;SDS011;2462;51.456;7.248;2023-02-01T06:05:30;7.53;;;2.60;;
2934;SDS011;2462;51.456;7.248;2023-02-01T06:07:56;3.90;;;2.43;;
2934;SDS011;2462;51.456;7.248;2023-02-01T06:10:23;4.30;;;2.47;;
2934;SDS011;2462;51.456;7.248;2023-02-01T06:12:49;4.30;;;2.70;;
2934;SDS011;2462;51.456;7.248;2023-02-01T06:15:15;4.67;;;2.70;;
2934;SDS011;2462;51.456;7.248;2023-02-01T06:17:42;3.77;;;2.67;;
2934;SDS011;2462;51.456;7.248;2023-02-01T06:20:08;5.87;;;2.87;;
2934;SDS011;2462;51.456;7.248;2023-02-01T06:22:35;8.23;;;2.60;;
2934;SDS011;2462;51.456;7.248;2023-02-01T06:25:01;5.13;;;2.77;;
2934;SDS011;2462;51.456;7.248;2023-02-01T06:27:28;4.13;;;2.30;;
2934;SDS011;2462;51.456;7.248;2023-02-01T06:29:54;4.80;;;2.57;;
2934;SDS011;2462;51.456;7.248;2023-02-01T06:32:20;4.67;;;2.83;;
2934;SDS011;2462;51.456;7.248;2023-02-01T06:34:47;4.90;;;2.70;;
2934;SDS011;2462;51.456;7.248;2023-02-01T06:37:13;6.30;;;2.80;;
2934;SDS011;2462;51.456;7.248;2023-02-01T06:39:39;5.00;;;2.60;;
2934;SDS011;2462;51.456;7.248;2023-02-01T06:42:06;6.00;;;2.30;;
2934;SDS011;2462;51.456;7.248;2023-02-01T06:44:32;6.50;;;2.80;;
2934;SDS011;2462;51.456;7.248;2023-02-01T06:46:58;7.20;;;2.80;;
2934;SDS011;2462;51.456;7.248;2023-02-01T06:49:24;3.53;;;2.43;;
2934;SDS011;2462;51.456;7.248;2023-02-01T06:51:50;6.57;;;3.40;;
2934;SDS011;2462;51.456;7.248;2023-02-01T06:54:16;3.60;;;2.30;;
2934;SDS011;2462;51.456;7.248;2023-02-01T06:56:42;5.03;;;2.30;;
2934;SDS011;2462;51.456;7.248;2023-02-01T06:59:08;8.03;;;2.80;;
2934;SDS011;2462;51.456;7.248;2023-02-01T07:01:34;6.30;;;2.50;;
2934;SDS011;2462;51.456;7.248;2023-02-01T07:04:00;3.60;;;2.30;;
2934;SDS011;2462;51.456;7.248;2023-02-01T07:06:26;5.00;;;2.40;;
2934;SDS011;2462;51.456;7.248;2023-02-01T07:08:52;8.57;;;2.60;;
2934;SDS011;2462;51.456;7.248;2023-02-01T07:11:20;3.90;;;2.20;;
2934;SDS011;2462;51.456;7.248;2023-02-01T07:13:47;4.73;;;3.03;;
2934;SDS011;2462;51.456;7.248;2023-02-01T07:16:14;6.10;;;2.57;;
2934;SDS011;2462;51.456;7.248;2023-02-01T07:18:40;7.33;;;2.77;;
2934;SDS011;2462;51.456;7.248;2023-02-01T07:21:06;4.83;;;2.63;;
2934;SDS011;2462;51.456;7.248;2023-02-01T07:23:33;2.63;;;1.90;;
2934;SDS011;2462;51.456;7.248;2023-02-01T07:26:00;5.80;;;3.03;;
2934;SDS011;2462;51.456;7.248;2023-02-01T07:28:28;3.83;;;2.43;;
2934;SDS011;2462;51.456;7.248;2023-02-01T07:30:54;6.73;;;2.50;;
2934;SDS011;2462;51.456;7.248;2023-02-01T07:33:21;7.47;;;2.47;;
2934;SDS011;2462;51.456;7.248;2023-02-01T07:35:48;3.23;;;2.20;;
2934;SDS011;2462;51.456;7.248;2023-02-01T07:38:14;3.80;;;2.70;;
2934;SDS011;2462;51.456;7.248;2023-02-01T07:40:40;2.77;;;2.23;;
2934;SDS011;2462;51.456;7.248;2023-02-01T07:43:06;3.70;;;2.57;;
2934;SDS011;2462;51.456;7.248;2023-02-01T07:45:33;3.47;;;2.63;;
2934;SDS011;2462;51.456;7.248;2023-02-01T07:47:59;4.90;;;2.83;;
2934;SDS011;2462;51.456;7.248;2023-02-01T07:50:25;3.27;;;2.97;;
2934;SDS011;2462;51.456;7.248;2023-02-01T07:52:51;6.50;;;2.40;;
2934;SDS011;2462;51.456;7.248;2023-02-01T07:55:18;4.90;;;2.30;;
2934;SDS011;2462;51.456;7.248;2023-02-01T07:57:44;2.57;;;2.07;;
2934;SDS011;2462;51.456;7.248;2023-02-01T08:00:10;5.17;;;2.60;;
2934;SDS011;2462;51.456;7.248;2023-02-01T08:02:58;5.30;;;2.37;;
2934;SDS011;2462;51.456;7.248;2023-02-01T08:05:25;9.07;;;3.47;;
2934;SDS011;2462;51.456;7.248;2023-02-01T08:07:51;4.97;;;2.83;;
2934;SDS011;2462;51.456;7.248;2023-02-01T08:10:17;3.00;;;2.30;;
2934;SDS011;2462;51.456;7.248;2023-02-01T08:12:43;3.27;;;2.30;;
2934;SDS011;2462;51.456;7.248;2023-02-01T08:15:13;4.30;;;2.33;;
2934;SDS011;2462;51.456;7.248;2023-02-01T08:17:39;5.10;;;2.70;;
2934;SDS011;2462;51.456;7.248;2023-02-01T08:20:05;4.20;;;2.63;;
2934;SDS011;2462;51.456;7.248;2023-02-01T08:22:32;7.27;;;2.70;;
2934;SDS011;2462;51.456;7.248;2023-02-01T08:24:58;9.63;;;3.60;;
2934;SDS011;2462;51.456;7.248;2023-02-01T08:27:26;11.70;;;4.60;;
2934;SDS011;2462;51.456;7.248;2023-02-01T08:29:52;6.43;;;3.05;;
2934;SDS011;2462;51.456;7.248;2023-02-01T08:32:19;6.07;;;3.20;;
2934;SDS011;2462;51.456;7.248;2023-02-01T08:34:45;7.97;;;2.60;;
2934;SDS011;2462;51.456;7.248;2023-02-01T08:37:11;5.90;;;2.90;;
2934;SDS011;2462;51.456;7.248;2023-02-01T08:39:37;4.50;;;3.03;;
2934;SDS011;2462;51.456;7.248;2023-02-01T08:42:03;5.53;;;3.77;;
2934;SDS011;2462;51.456;7.248;2023-02-01T08:44:47;9.30;;;3.77;;
2934;SDS011;2462;51.456;7.248;2023-02-01T08:47:13;7.67;;;3.00;;
2934;SDS011;2462;51.456;7.248;2023-02-01T08:49:39;5.90;;;3.10;;
2934;SDS011;2462;51.456;7.248;2023-02-01T08:52:05;5.60;;;2.77;;
2934;SDS011;2462;51.456;7.248;2023-02-01T08:54:31;5.17;;;2.73;;
2934;SDS011;2462;51.456;7.248;2023-02-01T08:56:57;8.13;;;3.27;;
2934;SDS011;2462;51.456;7.248;2023-02-01T08:59:23;5.80;;;3.07;;
2934;SDS011;2462;51.456;7.248;2023-02-01T09:01:49;13.00;;;4.97;;
2934;SDS011;2462;51.456;7.248;2023-02-01T09:04:15;8.33;;;3.50;;
2934;SDS011;2462;51.456;7.248;2023-02-01T09:06:41;12.47;;;3.90;;
2934;SDS011;2462;51.456;7.248;2023-02-01T09:09:07;9.30;;;4.13;;
2934;SDS011;2462;51.456;7.248;2023-02-01T09:11:33;8.03;;;4.10;;
2934;SDS011;2462;51.456;7.248;2023-02-01T09:13:59;5.87;;;3.73;;
2934;SDS011;2462;51.456;7.248;2023-02-01T09:16:25;7.93;;;3.47;;
2934;SDS011;2462;51.456;7.248;2023-02-01T09:18:51;10.00;;;3.50;;
2934;SDS011;2462;51.456;7.248;2023-02-01T09:21:17;7.70;;;3.60;;
2934;SDS011;2462;51.456;7.248;2023-02-01T09:23:43;5.67;;;3.07;;
2934;SDS011;2462;51.456;7.248;2023-02-01T09:26:10;9.67;;;4.30;;
2934;SDS011;2462;51.456;7.248;2023-02-01T09:28:36;5.03;;;3.30;;
2934;SDS011;2462;51.456;7.248;2023-02-01T09:31:03;8.63;;;4.30;;
2934;SDS011;2462;51.456;7.248;2023-02-01T09:33:29;6.83;;;3.80;;
2934;SDS011;2462;51.456;7.248;2023-02-01T09:35:58;8.37;;;3.27;;
2934;SDS011;2462;51.456;7.248;2023-02-01T09:38:25;6.80;;;3.63;;
2934;SDS011;2462;51.456;7.248;2023-02-01T09:40:52;6.33;;;3.10;;
2934;SDS011;2462;51.456;7.248;2023-02-01T09:43:21;7.13;;;3.67;;
2934;SDS011;2462;51.456;7.248;2023-02-01T09:45:51;6.00;;;2.80;;
2934;SDS011;2462;51.456;7.248;2023-02-01T09:48:20;6.87;;;3.60;;
2934;SDS011;2462;51.456;7.248;2023-02-01T09:50:53;7.33;;;3.20;;
2934;SDS011;2462;51.456;7.248;2023-02-01T09:53:25;5.40;;;3.07;;
2934;SDS011;2462;51.456;7.248;2023-02-01T09:55:54;6.40;;;3.30;;
2934;SDS011;2462;51.456;7.248;2023-02-01T09:58:32;7.80;;;3.17;;
2934;SDS011;2462;51.456;7.248;2023-02-01T10:01:00;7.90;;;3.67;;
2934;SDS011;2462;51.456;7.248;2023-02-01T10:03:28;5.43;;;2.80;;
2934;SDS011;2462;51.456;7.248;2023-02-01T10:06:17;6.03;;;3.37;;
2934;SDS011;2462;51.456;7.248;2023-02-01T10:09:04;4.40;;;2.80;;
2934;SDS011;2462;51.456;7.248;2023-02-01T10:19:20;10.70;;;3.57;;
2934;SDS011;2462;51.456;7.248;2023-02-01T10:21:51;10.97;;;4.00;;
2934;SDS011;2462;51.456;7.248;2023-02-01T10:24:36;7.50;;;3.60;;
2934;SDS011;2462;51.456;7.248;2023-02-01T10:27:11;8.10;;;3.40;;
2934;SDS011;2462;51.456;7.248;2023-02-01T10:29:39;6.67;;;3.23;;
2934;SDS011;2462;51.456;7.248;2023-02-01T10:32:13;9.67;;;4.00;;
2934;SDS011;2462;51.456;7.248;2023-02-01T10:34:39;8.23;;;3.27;;
2934;SDS011;2462;51.456;7.248;2023-02-01T10:37:18;7.13;;;3.40;;
2934;SDS011;2462;51.456;7.248;2023-02-01T10:39:46;7.10;;;3.20;;
2934;SDS011;2462;51.456;7.248;2023-02-01T10:42:13;7.03;;;3.20;;
2934;SDS011;2462;51.456;7.248;2023-02-01T10:44:40;8.63;;;3.80;;
2934;SDS011;2462;51.456;7.248;2023-02-01T10:47:09;6.50;;;3.37;;
2934;SDS011;2462;51.456;7.248;2023-02-01T10:52:48;9.47;;;4.40;;
2934;SDS011;2462;51.456;7.248;2023-02-01T10:54:47;6.43;;;3.33;;
2934;SDS011;2462;51.456;7.248;2023-02-01T10:57:21;5.90;;;3.57;;
2934;SDS011;2462;51.456;7.248;2023-02-01T10:59:49;11.40;;;4.00;;
2934;SDS011;2462;51.456;7.248;2023-02-01T11:02:26;5.93;;;3.33;;
2934;SDS011;2462;51.456;7.248;2023-02-01T11:07:50;10.77;;;3.63;;
2934;SDS011;2462;51.456;7.248;2023-02-01T11:13:01;7.23;;;3.50;;
2934;SDS011;2462;51.456;7.248;2023-02-01T11:15:27;4.10;;;2.77;;
2934;SDS011;2462;51.456;7.248;2023-02-01T11:17:53;9.67;;;4.40;;
2934;SDS011;2462;51.456;7.248;2023-02-01T11:20:38;9.27;;;3.50;;
2934;SDS011;2462;51.456;7.248;2023-02-01T11:23:05;8.17;;;3.63;;
2934;SDS011;2462;51.456;7.248;2023-02-01T11:25:32;7.30;;;3.10;;
2934;SDS011;2462;51.456;7.248;2023-02-01T11:27:58;6.10;;;3.57;;
2934;SDS011;2462;51.456;7.248;2023-02-01T11:30:38;5.27;;;3.30;;
2934;SDS011;2462;51.456;7.248;2023-02-01T11:33:05;5.67;;;2.90;;
2934;SDS011;2462;51.456;7.248;2023-02-01T11:35:31;11.30;;;4.03;;
2934;SDS011;2462;51.456;7.248;2023-02-01T11:37:58;8.13;;;3.77;;
2934;SDS011;2462;51.456;7.248;2023-02-01T11:40:26;5.83;;;3.30;;
2934;SDS011;2462;51.456;7.248;2023-02-01T11:42:57;6.77;;;2.90;;
2934;SDS011;2462;51.456;7.248;2023-02-01T11:45:25;7.30;;;3.83;;
2934;SDS011;2462;51.456;7.248;2023-02-01T11:47:51;5.93;;;3.13;;
2934;SDS011;2462;51.456;7.248;2023-02-01T11:50:18;7.17;;;3.53;;
2934;SDS011;2462;51.456;7.248;2023-02-01T11:52:53;5.77;;;3.10;;
2934;SDS011;2462;51.456;7.248;2023-02-01T11:58:02;4.27;;;3.03;;
2934;SDS011;2462;51.456;7.248;2023-02-01T12:05:31;5.20;;;3.50;;
2934;SDS011;2462;51.456;7.248;2023-02-01T12:10:37;6.50;;;3.17;;
2934;SDS011;2462;51.456;7.248;2023-02-01T12:15:50;4.27;;;2.70;;
2934;SDS011;2462;51.456;7.248;2023-02-01T12:41:16;6.77;;;4.10;;
2934;SDS011;2462;51.456;7.248;2023-02-01T12:46:12;7.87;;;4.37;;
2934;SDS011;2462;51.456;7.248;2023-02-01T12:48:42;5.10;;;3.40;;
2934;SDS011;2462;51.456;7.248;2023-02-01T12:51:16;8.67;;;3.37;;
2934;SDS011;2462;51.456;7.248;2023-02-01T12:56:11;6.13;;;2.60;;
2934;SDS011;2462;51.456;7.248;2023-02-01T13:01:13;7.37;;;3.93;;
2934;SDS011;2462;51.456;7.248;2023-02-01T13:04:01;6.67;;;3.40;;
2934;SDS011;2462;51.456;7.248;2023-02-01T13:06:36;5.10;;;2.90;;
2934;SDS011;2462;51.456;7.248;2023-02-01T13:11:29;6.83;;;3.10;;
2934;SDS011;2462;51.456;7.248;2023-02-01T13:14:04;3.10;;;2.70;;
2934;SDS011;2462;51.456;7.248;2023-02-01T13:16:32;6.80;;;3.50;;
2934;SDS011;2462;51.456;7.248;2023-02-01T13:19:00;8.90;;;3.90;;
2934;SDS011;2462;51.456;7.248;2023-02-01T13:21:30;6.33;;;3.03;;
2934;SDS011;2462;51.456;7.248;2023-02-01T13:23:57;4.37;;;2.80;;
2934;SDS011;2462;51.456;7.248;2023-02-01T13:26:23;8.00;;;3.20;;
2934;SDS011;2462;51.456;7.248;2023-02-01T13:28:50;8.53;;;4.00;;
2934;SDS011;2462;51.456;7.248;2023-02-01T13:36:41;5.13;;;3.20;;
2934;SDS011;2462;51.456;7.248;2023-02-01T13:41:42;5.83;;;2.90;;
2934;SDS011;2462;51.456;7.248;2023-02-01T13:44:25;7.33;;;2.93;;
2934;SDS011;2462;51.456;7.248;2023-02-01T13:46:53;5.28;;;2.95;;
2934;SDS011;2462;51.456;7.248;2023-02-01T13:49:25;6.50;;;2.60;;
2934;SDS011;2462;51.456;7.248;2023-02-01T13:51:53;10.83;;;4.20;;
2934;SDS011;2462;51.456;7.248;2023-02-01T13:54:29;6.27;;;3.33;;
2934;SDS011;2462;51.456;7.248;2023-02-01T13:56:57;7.37;;;3.13;;
2934;SDS011;2462;51.456;7.248;2023-02-01T13:59:45;5.77;;;3.20;;
2934;SDS011;2462;51.456;7.248;2023-02-01T14:04:59;6.30;;;3.00;;
2934;SDS011;2462;51.456;7.248;2023-02-01T14:07:25;10.97;;;3.77;;
2934;SDS011;2462;51.456;7.248;2023-02-01T14:09:51;6.47;;;3.30;;
2934;SDS011;2462;51.456;7.248;2023-02-01T14:15:27;8.17;;;2.70;;
2934;SDS011;2462;51.456;7.248;2023-02-01T14:17:53;6.10;;;3.90;;
2934;SDS011;2462;51.456;7.248;2023-02-01T14:23:04;4.13;;;2.73;;
2934;SDS011;2462;51.456;7.248;2023-02-01T14:25:34;5.03;;;3.00;;
2934;SDS011;2462;51.456;7.248;2023-02-01T14:28:00;4.27;;;2.20;;
2934;SDS011;2462;51.456;7.248;2023-02-01T14:30:27;6.20;;;2.60;;
2934;SDS011;2462;51.456;7.248;2023-02-01T14:32:53;8.77;;;4.57;;
2934;SDS011;2462;51.456;7.248;2023-02-01T14:35:19;5.00;;;2.80;;
2934;SDS011;2462;51.456;7.248;2023-02-01T14:37:46;6.30;;;2.67;;
2934;SDS011;2462;51.456;7.248;2023-02-01T14:55:27;4.57;;;2.50;;
2934;SDS011;2462;51.456;7.248;2023-02-01T14:57:55;6.90;;;2.83;;
2934;SDS011;2462;51.456;7.248;2023-02-01T15:00:25;8.33;;;2.50;;
2934;SDS011;2462;51.456;7.248;2023-02-01T15:02:52;9.83;;;3.50;;
2934;SDS011;2462;51.456;7.248;2023-02-01T15:05:23;5.60;;;2.20;;
2934;SDS011;2462;51.456;7.248;2023-02-01T15:07:50;5.73;;;2.77;;
2934;SDS011;2462;51.456;7.248;2023-02-01T15:10:17;4.20;;;2.50;;
2934;SDS011;2462;51.456;7.248;2023-02-01T15:12:44;4.57;;;2.50;;
2934;SDS011;2462;51.456;7.248;2023-02-01T15:15:14;4.13;;;3.00;;
2934;SDS011;2462;51.456;7.248;2023-02-01T15:17:42;5.97;;;2.80;;
2934;SDS011;2462;51.456;7.248;2023-02-01T15:20:15;4.57;;;2.43;;
2934;SDS011;2462;51.456;7.248;2023-02-01T15:22:42;4.50;;;2.80;;
2934;SDS011;2462;51.456;7.248;2023-02-01T15:25:18;3.40;;;2.33;;
2934;SDS011;2462;51.456;7.248;2023-02-01T15:27:45;4.53;;;2.13;;
2934;SDS011;2462;51.456;7.248;2023-02-01T15:32:46;4.47;;;2.70;;
2934;SDS011;2462;51.456;7.248;2023-02-01T15:40:55;6.90;;;2.40;;
2934;SDS011;2462;51.456;7.248;2023-02-01T15:43:22;4.03;;;2.23;;
2934;SDS011;2462;51.456;7.248;2023-02-01T15:45:48;4.63;;;2.30;;
2934;SDS011;2462;51.456;7.248;2023-02-01T15:48:19;3.83;;;2.30;;
2934;SDS011;2462;51.456;7.248;2023-02-01T15:50:46;5.50;;;2.20;;
2934;SDS011;2462;51.456;7.248;2023-02-01T15:53:14;5.40;;;2.53;;
2934;SDS011;2462;51.456;7.248;2023-02-01T15:55:43;4.70;;;2.50;;
2934;SDS011;2462;51.456;7.248;2023-02-01T15:58:15;6.20;;;2.53;;
2934;SDS011;2462;51.456;7.248;2023-02-01T16:00:44;6.00;;;2.35;;
2934;SDS011;2462;51.456;7.248;2023-02-01T16:05:54;5.80;;;2.50;;
2934;SDS011;2462;51.456;7.248;2023-02-01T16:08:24;6.40;;;2.90;;
2934;SDS011;2462;51.456;7.248;2023-02-01T16:10:52;5.87;;;2.77;;
2934;SDS011;2462;51.456;7.248;2023-02-01T16:13:19;6.50;;;2.63;;
2934;SDS011;2462;51.456;7.248;2023-02-01T16:15:45;13.77;;;4.17;;
2934;SDS011;2462;51.456;7.248;2023-02-01T16:18:12;11.47;;;2.47;;
2934;SDS011;2462;51.456;7.248;2023-02-01T16:20:39;4.43;;;2.20;;
2934;SDS011;2462;51.456;7.248;2023-02-01T16:23:05;6.27;;;2.67;;
2934;SDS011;2462;51.456;7.248;2023-02-01T16:25:32;6.40;;;2.50;;
2934;SDS011;2462;51.456;7.248;2023-02-01T16:27:58;6.67;;;3.00;;
2934;SDS011;2462;51.456;7.248;2023-02-01T16:30:24;4.13;;;2.03;;
2934;SDS011;2462;51.456;7.248;2023-02-01T16:32:53;4.23;;;2.77;;
2934;SDS011;2462;51.456;7.248;2023-02-01T16:37:48;7.40;;;2.83;;
2934;SDS011;2462;51.456;7.248;2023-02-01T16:40:15;6.13;;;2.10;;
2934;SDS011;2462;51.456;7.248;2023-02-01T16:42:41;6.17;;;2.40;;
2934;SDS011;2462;51.456;7.248;2023-02-01T16:45:07;7.67;;;2.83;;
2934;SDS011;2462;51.456;7.248;2023-02-01T16:47:33;4.50;;;2.17;;
2934;SDS011;2462;51.456;7.248;2023-02-01T16:50:01;6.23;;;2.20;;
2934;SDS011;2462;51.456;7.248;2023-02-01T16:52:27;8.70;;;2.87;;
2934;SDS011;2462;51.456;7.248;2023-02-01T16:54:53;5.17;;;2.50;;
2934;SDS011;2462;51.456;7.248;2023-02-01T16:57:20;6.90;;;2.57;;
2934;SDS011;2462;51.456;7.248;2023-02-01T16:59:50;3.97;;;2.07;;
2934;SDS011;2462;51.456;7.248;2023-02-01T17:02:17;6.13;;;2.60;;
2934;SDS011;2462;51.456;7.248;2023-02-01T17:04:47;5.77;;;2.13;;
2934;SDS011;2462;51.456;7.248;2023-02-01T17:07:17;3.93;;;2.20;;
2934;SDS011;2462;51.456;7.248;2023-02-01T17:09:43;4.43;;;2.30;;
2934;SDS011;2462;51.456;7.248;2023-02-01T17:12:23;2.90;;;2.30;;
2934;SDS011;2462;51.456;7.248;2023-02-01T17:14:50;4.93;;;2.23;;
2934;SDS011;2462;51.456;7.248;2023-02-01T17:17:16;3.73;;;2.47;;
2934;SDS011;2462;51.456;7.248;2023-02-01T17:19:44;3.28;;;2.16;;
2934;SDS011;2462;51.456;7.248;2023-02-01T17:22:12;9.53;;;2.97;;
2934;SDS011;2462;51.456;7.248;2023-02-01T17:24:38;3.90;;;2.27;;
2934;SDS011;2462;51.456;7.248;2023-02-01T17:27:04;7.10;;;2.80;;
2934;SDS011;2462;51.456;7.248;2023-02-01T17:29:31;9.87;;;2.20;;
2934;SDS011;2462;51.456;7.248;2023-02-01T17:31:57;5.53;;;2.40;;
2934;SDS011;2462;51.456;7.248;2023-02-01T17:34:24;4.67;;;2.70;;
2934;SDS011;2462;51.456;7.248;2023-02-01T17:36:50;4.43;;;2.00;;